sensor_id;sensor_type;location;lat;lon;timestamp;P1;durP1;ratioP1;P2;durP2;ratioP2
14698;SDS011;7439;50.804;4.602;2023-01-29T00:01:52;55.57;;;37.60;;
14698;SDS011;7439;50.804;4.602;2023-01-29T00:04:20;59.83;;;38.43;;
14698;SDS011;7439;50.804;4.602;2023-01-29T00:06:49;54.03;;;36.23;;
14698;SDS011;7439;50.804;4.602;2023-01-29T00:09:17;53.27;;;34.67;;
14698;SDS011;7439;50.804;4.602;2023-01-29T00:11:44;59.67;;;36.30;;
14698;SDS011;7439;50.804;4.602;2023-01-29T00:14:12;54.90;;;36.50;;
14698;SDS011;7439;50.804;4.602;2023-01-29T00:16:39;54.33;;;35.43;;
14698;SDS011;7439;50.804;4.602;2023-01-29T00:19:07;58.17;;;36.87;;
14698;SDS011;7439;50.804;4.602;2023-01-29T00:21:34;53.60;;;36.67;;
14698;SDS011;7439;50.804;4.602;2023-01-29T00:24:03;49.30;;;33.97;;
14698;SDS011;7439;50.804;4.602;2023-01-29T00:26:31;53.93;;;34.17;;
14698;SDS011;7439;50.804;4.602;2023-01-29T00:28:58;61.20;;;36.27;;
14698;SDS011;7439;50.804;4.602;2023-01-29T00:31:26;56.67;;;36.53;;
14698;SDS011;7439;50.804;4.602;2023-01-29T00:33:54;54.83;;;35.37;;
14698;SDS011;7439;50.804;4.602;2023-01-29T00:36:21;57.70;;;36.93;;
14698;SDS011;7439;50.804;4.602;2023-01-29T00:38:52;53.07;;;35.97;;
14698;SDS011;7439;50.804;4.602;2023-01-29T00:41:24;56.23;;;36.67;;
14698;SDS011;7439;50.804;4.602;2023-01-29T00:44:10;57.53;;;39.50;;
14698;SDS011;7439;50.804;4.602;2023-01-29T00:46:55;56.40;;;36.47;;
14698;SDS011;7439;50.804;4.602;2023-01-29T00:49:23;59.13;;;38.57;;
14698;SDS011;7439;50.804;4.602;2023-01-29T00:51:50;63.53;;;39.00;;
14698;SDS011;7439;50.804;4.602;2023-01-29T00:54:32;55.07;;;38.23;;
14698;SDS011;7439;50.804;4.602;2023-01-29T00:57:01;59.80;;;37.80;;
14698;SDS011;7439;50.804;4.602;2023-01-29T00:59:28;59.03;;;39.63;;
14698;SDS011;7439;50.804;4.602;2023-01-29T01:01:56;65.03;;;41.23;;
14698;SDS011;7439;50.804;4.602;2023-01-29T01:04:40;64.77;;;41.67;;
14698;SDS011;7439;50.804;4.602;2023-01-29T01:07:08;65.80;;;39.87;;
14698;SDS011;7439;50.804;4.602;2023-01-29T01:09:35;63.07;;;39.27;;
14698;SDS011;7439;50.804;4.602;2023-01-29T01:12:22;65.53;;;41.87;;
14698;SDS011;7439;50.804;4.602;2023-01-29T01:14:49;66.83;;;41.30;;
14698;SDS011;7439;50.804;4.602;2023-01-29T01:17:16;66.43;;;39.87;;
14698;SDS011;7439;50.804;4.602;2023-01-29T01:19:44;68.93;;;41.47;;
14698;SDS011;7439;50.804;4.602;2023-01-29T01:22:11;61.70;;;41.10;;
14698;SDS011;7439;50.804;4.602;2023-01-29T01:24:39;61.77;;;39.50;;
14698;SDS011;7439;50.804;4.602;2023-01-29T01:27:06;70.00;;;42.60;;
14698;SDS011;7439;50.804;4.602;2023-01-29T01:29:35;61.83;;;38.40;;
14698;SDS011;7439;50.804;4.602;2023-01-29T01:32:03;65.17;;;40.47;;
14698;SDS011;7439;50.804;4.602;2023-01-29T01:34:31;64.80;;;39.20;;
14698;SDS011;7439;50.804;4.602;2023-01-29T01:36:58;63.07;;;38.30;;
14698;SDS011;7439;50.804;4.602;2023-01-29T01:39:26;62.27;;;38.43;;
14698;SDS011;7439;50.804;4.602;2023-01-29T01:41:53;60.77;;;36.50;;
14698;SDS011;7439;50.804;4.602;2023-01-29T01:47:08;53.83;;;36.03;;
14698;SDS011;7439;50.804;4.602;2023-01-29T01:49:36;65.50;;;39.20;;
14698;SDS011;7439;50.804;4.602;2023-01-29T01:52:03;56.90;;;37.60;;
14698;SDS011;7439;50.804;4.602;2023-01-29T01:54:31;59.97;;;37.57;;
14698;SDS011;7439;50.804;4.602;2023-01-29T01:56:59;59.97;;;39.53;;
14698;SDS011;7439;50.804;4.602;2023-01-29T01:59:33;52.30;;;35.27;;
14698;SDS011;7439;50.804;4.602;2023-01-29T02:02:03;55.53;;;37.23;;
14698;SDS011;7439;50.804;4.602;2023-01-29T02:04:50;57.40;;;40.03;;
14698;SDS011;7439;50.804;4.602;2023-01-29T02:07:39;63.23;;;37.47;;
14698;SDS011;7439;50.804;4.602;2023-01-29T02:10:25;57.57;;;36.70;;
14698;SDS011;7439;50.804;4.602;2023-01-29T02:12:53;58.93;;;36.47;;
14698;SDS011;7439;50.804;4.602;2023-01-29T02:15:21;61.80;;;38.60;;
14698;SDS011;7439;50.804;4.602;2023-01-29T02:17:48;64.23;;;40.57;;
14698;SDS011;7439;50.804;4.602;2023-01-29T02:20:18;69.70;;;41.57;;
14698;SDS011;7439;50.804;4.602;2023-01-29T02:23:07;67.20;;;41.17;;
14698;SDS011;7439;50.804;4.602;2023-01-29T02:25:47;65.77;;;39.40;;
14698;SDS011;7439;50.804;4.602;2023-01-29T02:28:20;58.10;;;39.43;;
14698;SDS011;7439;50.804;4.602;2023-01-29T02:30:52;54.40;;;39.67;;
14698;SDS011;7439;50.804;4.602;2023-01-29T02:33:24;58.17;;;36.50;;
14698;SDS011;7439;50.804;4.602;2023-01-29T02:35:55;55.67;;;38.10;;
14698;SDS011;7439;50.804;4.602;2023-01-29T02:38:25;61.83;;;38.77;;
14698;SDS011;7439;50.804;4.602;2023-01-29T02:40:56;61.27;;;39.67;;
14698;SDS011;7439;50.804;4.602;2023-01-29T02:43:29;61.57;;;39.47;;
14698;SDS011;7439;50.804;4.602;2023-01-29T02:46:00;64.80;;;42.60;;
14698;SDS011;7439;50.804;4.602;2023-01-29T02:48:32;60.23;;;38.53;;
14698;SDS011;7439;50.804;4.602;2023-01-29T02:51:03;62.07;;;39.83;;
14698;SDS011;7439;50.804;4.602;2023-01-29T02:53:34;60.03;;;37.10;;
14698;SDS011;7439;50.804;4.602;2023-01-29T02:56:06;60.97;;;38.53;;
14698;SDS011;7439;50.804;4.602;2023-01-29T02:58:37;59.67;;;38.37;;
14698;SDS011;7439;50.804;4.602;2023-01-29T03:01:06;61.23;;;39.40;;
14698;SDS011;7439;50.804;4.602;2023-01-29T03:03:35;63.17;;;38.07;;
14698;SDS011;7439;50.804;4.602;2023-01-29T03:06:05;60.73;;;38.40;;
14698;SDS011;7439;50.804;4.602;2023-01-29T03:08:37;61.03;;;42.23;;
14698;SDS011;7439;50.804;4.602;2023-01-29T03:11:10;64.47;;;40.17;;
14698;SDS011;7439;50.804;4.602;2023-01-29T03:13:42;66.17;;;43.43;;
14698;SDS011;7439;50.804;4.602;2023-01-29T03:16:13;65.20;;;42.50;;
14698;SDS011;7439;50.804;4.602;2023-01-29T03:18:45;62.27;;;40.50;;
14698;SDS011;7439;50.804;4.602;2023-01-29T03:21:16;62.93;;;37.73;;
14698;SDS011;7439;50.804;4.602;2023-01-29T03:24:03;60.93;;;38.93;;
14698;SDS011;7439;50.804;4.602;2023-01-29T03:26:49;58.17;;;40.20;;
14698;SDS011;7439;50.804;4.602;2023-01-29T03:29:35;64.97;;;39.10;;
14698;SDS011;7439;50.804;4.602;2023-01-29T03:32:22;55.90;;;35.80;;
14698;SDS011;7439;50.804;4.602;2023-01-29T03:34:52;63.63;;;39.97;;
14698;SDS011;7439;50.804;4.602;2023-01-29T03:37:22;60.27;;;37.37;;
14698;SDS011;7439;50.804;4.602;2023-01-29T03:39:51;61.73;;;39.73;;
14698;SDS011;7439;50.804;4.602;2023-01-29T03:42:20;64.10;;;40.73;;
14698;SDS011;7439;50.804;4.602;2023-01-29T03:44:54;58.33;;;37.97;;
14698;SDS011;7439;50.804;4.602;2023-01-29T03:47:26;59.77;;;39.60;;
14698;SDS011;7439;50.804;4.602;2023-01-29T03:50:00;63.03;;;40.40;;
14698;SDS011;7439;50.804;4.602;2023-01-29T03:52:30;67.47;;;41.87;;
14698;SDS011;7439;50.804;4.602;2023-01-29T03:55:01;57.70;;;36.60;;
14698;SDS011;7439;50.804;4.602;2023-01-29T03:57:33;58.83;;;39.50;;
14698;SDS011;7439;50.804;4.602;2023-01-29T04:00:04;60.00;;;37.30;;
14698;SDS011;7439;50.804;4.602;2023-01-29T04:02:34;58.13;;;37.70;;
14698;SDS011;7439;50.804;4.602;2023-01-29T04:05:05;55.43;;;38.03;;
14698;SDS011;7439;50.804;4.602;2023-01-29T04:07:35;67.67;;;41.13;;
14698;SDS011;7439;50.804;4.602;2023-01-29T04:10:03;64.97;;;40.47;;
14698;SDS011;7439;50.804;4.602;2023-01-29T04:12:34;70.77;;;41.30;;
14698;SDS011;7439;50.804;4.602;2023-01-29T04:15:06;62.20;;;39.30;;
14698;SDS011;7439;50.804;4.602;2023-01-29T04:17:36;62.27;;;37.70;;
14698;SDS011;7439;50.804;4.602;2023-01-29T04:20:05;60.37;;;38.17;;
14698;SDS011;7439;50.804;4.602;2023-01-29T04:22:33;61.50;;;36.90;;
14698;SDS011;7439;50.804;4.602;2023-01-29T04:25:01;62.73;;;36.93;;
14698;SDS011;7439;50.804;4.602;2023-01-29T04:27:35;61.77;;;38.23;;
14698;SDS011;7439;50.804;4.602;2023-01-29T04:30:09;63.83;;;38.00;;
14698;SDS011;7439;50.804;4.602;2023-01-29T04:32:40;56.07;;;37.30;;
14698;SDS011;7439;50.804;4.602;2023-01-29T04:35:15;60.20;;;38.17;;
14698;SDS011;7439;50.804;4.602;2023-01-29T04:37:47;56.97;;;37.47;;
14698;SDS011;7439;50.804;4.602;2023-01-29T04:40:19;57.43;;;36.83;;
14698;SDS011;7439;50.804;4.602;2023-01-29T04:42:48;62.80;;;38.50;;
14698;SDS011;7439;50.804;4.602;2023-01-29T04:45:19;59.00;;;37.73;;
14698;SDS011;7439;50.804;4.602;2023-01-29T04:47:49;63.80;;;38.17;;
14698;SDS011;7439;50.804;4.602;2023-01-29T04:50:21;62.77;;;38.20;;
14698;SDS011;7439;50.804;4.602;2023-01-29T04:52:52;72.00;;;40.43;;
14698;SDS011;7439;50.804;4.602;2023-01-29T04:55:24;66.10;;;39.10;;
14698;SDS011;7439;50.804;4.602;2023-01-29T04:57:55;61.57;;;38.13;;
14698;SDS011;7439;50.804;4.602;2023-01-29T05:00:29;65.93;;;38.63;;
14698;SDS011;7439;50.804;4.602;2023-01-29T05:02:58;63.40;;;38.87;;
14698;SDS011;7439;50.804;4.602;2023-01-29T05:05:27;65.57;;;39.13;;
14698;SDS011;7439;50.804;4.602;2023-01-29T05:07:54;81.63;;;40.93;;
14698;SDS011;7439;50.804;4.602;2023-01-29T05:10:22;73.97;;;41.47;;
14698;SDS011;7439;50.804;4.602;2023-01-29T05:12:51;70.47;;;40.13;;
14698;SDS011;7439;50.804;4.602;2023-01-29T05:15:22;68.43;;;40.70;;
14698;SDS011;7439;50.804;4.602;2023-01-29T05:17:51;73.03;;;41.77;;
14698;SDS011;7439;50.804;4.602;2023-01-29T05:20:26;62.90;;;38.73;;
14698;SDS011;7439;50.804;4.602;2023-01-29T05:22:53;66.83;;;39.10;;
14698;SDS011;7439;50.804;4.602;2023-01-29T05:25:21;64.20;;;38.50;;
14698;SDS011;7439;50.804;4.602;2023-01-29T05:27:49;61.80;;;36.70;;
14698;SDS011;7439;50.804;4.602;2023-01-29T05:30:28;62.10;;;37.93;;
14698;SDS011;7439;50.804;4.602;2023-01-29T05:32:57;69.97;;;38.80;;
14698;SDS011;7439;50.804;4.602;2023-01-29T05:35:25;55.00;;;35.17;;
14698;SDS011;7439;50.804;4.602;2023-01-29T05:37:53;59.63;;;37.83;;
14698;SDS011;7439;50.804;4.602;2023-01-29T05:40:21;60.20;;;36.93;;
14698;SDS011;7439;50.804;4.602;2023-01-29T05:42:48;67.43;;;39.03;;
14698;SDS011;7439;50.804;4.602;2023-01-29T05:45:16;57.80;;;35.80;;
14698;SDS011;7439;50.804;4.602;2023-01-29T05:47:43;59.97;;;37.00;;
14698;SDS011;7439;50.804;4.602;2023-01-29T05:50:13;71.50;;;38.47;;
14698;SDS011;7439;50.804;4.602;2023-01-29T05:52:40;66.40;;;37.77;;
14698;SDS011;7439;50.804;4.602;2023-01-29T05:55:08;61.63;;;36.53;;
14698;SDS011;7439;50.804;4.602;2023-01-29T05:57:36;62.60;;;33.73;;
14698;SDS011;7439;50.804;4.602;2023-01-29T06:00:04;62.60;;;37.57;;
14698;SDS011;7439;50.804;4.602;2023-01-29T06:02:32;66.57;;;38.87;;
14698;SDS011;7439;50.804;4.602;2023-01-29T06:04:59;61.13;;;37.27;;
14698;SDS011;7439;50.804;4.602;2023-01-29T06:07:28;64.80;;;38.93;;
14698;SDS011;7439;50.804;4.602;2023-01-29T06:09:55;64.47;;;39.20;;
14698;SDS011;7439;50.804;4.602;2023-01-29T06:12:23;74.33;;;43.97;;
14698;SDS011;7439;50.804;4.602;2023-01-29T06:14:50;72.43;;;42.90;;
14698;SDS011;7439;50.804;4.602;2023-01-29T06:17:18;73.77;;;41.83;;
14698;SDS011;7439;50.804;4.602;2023-01-29T06:19:45;64.17;;;39.60;;
14698;SDS011;7439;50.804;4.602;2023-01-29T06:22:12;64.47;;;37.70;;
14698;SDS011;7439;50.804;4.602;2023-01-29T06:24:41;64.37;;;36.97;;
14698;SDS011;7439;50.804;4.602;2023-01-29T06:27:10;66.87;;;38.73;;
14698;SDS011;7439;50.804;4.602;2023-01-29T06:29:37;66.37;;;38.47;;
14698;SDS011;7439;50.804;4.602;2023-01-29T06:32:04;64.00;;;38.10;;
14698;SDS011;7439;50.804;4.602;2023-01-29T06:34:32;61.67;;;37.03;;
14698;SDS011;7439;50.804;4.602;2023-01-29T06:37:00;68.37;;;39.70;;
14698;SDS011;7439;50.804;4.602;2023-01-29T06:39:28;77.37;;;43.47;;
14698;SDS011;7439;50.804;4.602;2023-01-29T06:41:57;68.23;;;41.47;;
14698;SDS011;7439;50.804;4.602;2023-01-29T06:44:24;69.40;;;42.77;;
14698;SDS011;7439;50.804;4.602;2023-01-29T06:46:51;79.57;;;43.07;;
14698;SDS011;7439;50.804;4.602;2023-01-29T06:49:19;73.63;;;42.47;;
14698;SDS011;7439;50.804;4.602;2023-01-29T06:51:46;71.70;;;41.90;;
14698;SDS011;7439;50.804;4.602;2023-01-29T06:54:13;68.43;;;40.37;;
14698;SDS011;7439;50.804;4.602;2023-01-29T06:56:41;75.67;;;43.40;;
14698;SDS011;7439;50.804;4.602;2023-01-29T06:59:10;60.57;;;40.37;;
14698;SDS011;7439;50.804;4.602;2023-01-29T07:01:38;62.17;;;38.77;;
14698;SDS011;7439;50.804;4.602;2023-01-29T07:04:08;59.80;;;35.93;;
14698;SDS011;7439;50.804;4.602;2023-01-29T07:06:35;66.60;;;39.17;;
14698;SDS011;7439;50.804;4.602;2023-01-29T07:09:03;64.57;;;38.67;;
14698;SDS011;7439;50.804;4.602;2023-01-29T07:11:30;58.23;;;38.07;;
14698;SDS011;7439;50.804;4.602;2023-01-29T07:14:01;65.27;;;39.57;;
14698;SDS011;7439;50.804;4.602;2023-01-29T07:16:30;59.60;;;38.00;;
14698;SDS011;7439;50.804;4.602;2023-01-29T07:18:58;63.90;;;38.77;;
14698;SDS011;7439;50.804;4.602;2023-01-29T07:21:25;57.23;;;35.87;;
14698;SDS011;7439;50.804;4.602;2023-01-29T07:23:53;61.57;;;38.23;;
14698;SDS011;7439;50.804;4.602;2023-01-29T07:26:20;62.97;;;38.87;;
14698;SDS011;7439;50.804;4.602;2023-01-29T07:28:48;65.40;;;37.70;;
14698;SDS011;7439;50.804;4.602;2023-01-29T07:31:15;65.73;;;40.17;;
14698;SDS011;7439;50.804;4.602;2023-01-29T07:33:44;74.23;;;40.57;;
14698;SDS011;7439;50.804;4.602;2023-01-29T07:36:12;64.97;;;38.67;;
14698;SDS011;7439;50.804;4.602;2023-01-29T07:38:39;69.63;;;37.70;;
14698;SDS011;7439;50.804;4.602;2023-01-29T07:41:07;63.40;;;37.37;;
14698;SDS011;7439;50.804;4.602;2023-01-29T07:43:35;60.23;;;37.10;;
14698;SDS011;7439;50.804;4.602;2023-01-29T07:46:02;68.63;;;39.33;;
14698;SDS011;7439;50.804;4.602;2023-01-29T07:48:30;63.43;;;38.20;;
14698;SDS011;7439;50.804;4.602;2023-01-29T07:50:59;69.40;;;41.60;;
14698;SDS011;7439;50.804;4.602;2023-01-29T07:53:26;71.80;;;41.37;;
14698;SDS011;7439;50.804;4.602;2023-01-29T07:55:54;71.87;;;39.90;;
14698;SDS011;7439;50.804;4.602;2023-01-29T07:58:21;70.43;;;41.37;;
14698;SDS011;7439;50.804;4.602;2023-01-29T08:00:49;71.57;;;41.23;;
14698;SDS011;7439;50.804;4.602;2023-01-29T08:03:17;63.00;;;37.97;;
14698;SDS011;7439;50.804;4.602;2023-01-29T08:05:45;73.77;;;40.77;;
14698;SDS011;7439;50.804;4.602;2023-01-29T08:08:14;76.80;;;40.53;;
14698;SDS011;7439;50.804;4.602;2023-01-29T08:10:41;70.50;;;38.13;;
14698;SDS011;7439;50.804;4.602;2023-01-29T08:13:09;69.37;;;38.87;;
14698;SDS011;7439;50.804;4.602;2023-01-29T08:15:36;67.90;;;38.20;;
14698;SDS011;7439;50.804;4.602;2023-01-29T08:18:03;67.90;;;37.63;;
14698;SDS011;7439;50.804;4.602;2023-01-29T08:20:31;71.87;;;39.33;;
14698;SDS011;7439;50.804;4.602;2023-01-29T08:22:59;65.07;;;39.20;;
14698;SDS011;7439;50.804;4.602;2023-01-29T08:25:28;72.27;;;41.27;;
14698;SDS011;7439;50.804;4.602;2023-01-29T08:27:55;79.07;;;41.43;;
14698;SDS011;7439;50.804;4.602;2023-01-29T08:30:23;71.83;;;41.97;;
14698;SDS011;7439;50.804;4.602;2023-01-29T08:32:51;84.67;;;48.63;;
14698;SDS011;7439;50.804;4.602;2023-01-29T08:35:18;103.40;;;56.80;;
14698;SDS011;7439;50.804;4.602;2023-01-29T08:37:51;87.37;;;53.93;;
14698;SDS011;7439;50.804;4.602;2023-01-29T08:40:19;81.00;;;43.50;;
14698;SDS011;7439;50.804;4.602;2023-01-29T08:42:47;78.67;;;46.77;;
14698;SDS011;7439;50.804;4.602;2023-01-29T08:45:15;69.70;;;39.43;;
14698;SDS011;7439;50.804;4.602;2023-01-29T08:47:45;71.00;;;40.50;;
14698;SDS011;7439;50.804;4.602;2023-01-29T08:50:13;69.90;;;40.83;;
14698;SDS011;7439;50.804;4.602;2023-01-29T08:52:41;64.73;;;39.97;;
14698;SDS011;7439;50.804;4.602;2023-01-29T08:55:08;72.37;;;40.07;;
14698;SDS011;7439;50.804;4.602;2023-01-29T08:57:36;72.97;;;42.30;;
14698;SDS011;7439;50.804;4.602;2023-01-29T09:00:06;69.50;;;40.43;;
14698;SDS011;7439;50.804;4.602;2023-01-29T09:02:34;65.00;;;41.93;;
14698;SDS011;7439;50.804;4.602;2023-01-29T09:05:01;64.47;;;38.47;;
14698;SDS011;7439;50.804;4.602;2023-01-29T09:07:29;70.20;;;42.30;;
14698;SDS011;7439;50.804;4.602;2023-01-29T09:09:56;66.80;;;41.07;;
14698;SDS011;7439;50.804;4.602;2023-01-29T09:12:24;60.83;;;39.47;;
14698;SDS011;7439;50.804;4.602;2023-01-29T09:14:51;67.73;;;42.00;;
14698;SDS011;7439;50.804;4.602;2023-01-29T09:17:20;63.53;;;38.63;;
14698;SDS011;7439;50.804;4.602;2023-01-29T09:19:47;62.17;;;40.47;;
14698;SDS011;7439;50.804;4.602;2023-01-29T09:22:16;66.07;;;42.40;;
14698;SDS011;7439;50.804;4.602;2023-01-29T09:24:43;69.67;;;42.13;;
14698;SDS011;7439;50.804;4.602;2023-01-29T09:27:11;66.33;;;39.77;;
14698;SDS011;7439;50.804;4.602;2023-01-29T09:29:38;66.60;;;42.07;;
14698;SDS011;7439;50.804;4.602;2023-01-29T09:32:05;68.03;;;39.97;;
14698;SDS011;7439;50.804;4.602;2023-01-29T09:34:34;66.40;;;41.47;;
14698;SDS011;7439;50.804;4.602;2023-01-29T09:37:02;62.87;;;38.87;;
14698;SDS011;7439;50.804;4.602;2023-01-29T09:39:29;63.07;;;41.20;;
14698;SDS011;7439;50.804;4.602;2023-01-29T09:41:58;66.80;;;39.60;;
14698;SDS011;7439;50.804;4.602;2023-01-29T09:44:36;81.40;;;53.20;;
14698;SDS011;7439;50.804;4.602;2023-01-29T09:47:07;61.23;;;35.67;;
14698;SDS011;7439;50.804;4.602;2023-01-29T09:49:39;65.43;;;38.87;;
14698;SDS011;7439;50.804;4.602;2023-01-29T09:52:09;67.63;;;44.83;;
14698;SDS011;7439;50.804;4.602;2023-01-29T09:54:43;75.03;;;46.27;;
14698;SDS011;7439;50.804;4.602;2023-01-29T09:57:14;72.00;;;44.23;;
14698;SDS011;7439;50.804;4.602;2023-01-29T09:59:43;62.27;;;42.87;;
14698;SDS011;7439;50.804;4.602;2023-01-29T10:02:15;60.90;;;38.97;;
14698;SDS011;7439;50.804;4.602;2023-01-29T10:04:51;57.47;;;37.43;;
14698;SDS011;7439;50.804;4.602;2023-01-29T10:07:41;60.40;;;37.47;;
14698;SDS011;7439;50.804;4.602;2023-01-29T10:10:19;56.43;;;35.67;;
14698;SDS011;7439;50.804;4.602;2023-01-29T10:12:52;56.70;;;37.27;;
14698;SDS011;7439;50.804;4.602;2023-01-29T10:15:25;63.27;;;37.53;;
14698;SDS011;7439;50.804;4.602;2023-01-29T10:20:45;57.77;;;36.30;;
14698;SDS011;7439;50.804;4.602;2023-01-29T10:23:19;62.47;;;36.20;;
14698;SDS011;7439;50.804;4.602;2023-01-29T10:25:47;56.57;;;33.10;;
14698;SDS011;7439;50.804;4.602;2023-01-29T10:28:16;60.87;;;35.10;;
14698;SDS011;7439;50.804;4.602;2023-01-29T10:30:46;56.90;;;37.13;;
14698;SDS011;7439;50.804;4.602;2023-01-29T10:33:17;58.57;;;35.77;;
14698;SDS011;7439;50.804;4.602;2023-01-29T10:35:47;58.73;;;37.97;;
14698;SDS011;7439;50.804;4.602;2023-01-29T10:41:10;57.47;;;37.20;;
14698;SDS011;7439;50.804;4.602;2023-01-29T10:43:42;57.50;;;36.50;;
14698;SDS011;7439;50.804;4.602;2023-01-29T10:46:14;54.60;;;34.37;;
14698;SDS011;7439;50.804;4.602;2023-01-29T10:48:49;63.13;;;38.73;;
14698;SDS011;7439;50.804;4.602;2023-01-29T10:51:29;60.83;;;37.53;;
14698;SDS011;7439;50.804;4.602;2023-01-29T10:54:03;55.30;;;35.37;;
14698;SDS011;7439;50.804;4.602;2023-01-29T10:56:46;56.83;;;36.43;;
14698;SDS011;7439;50.804;4.602;2023-01-29T10:59:25;53.20;;;35.80;;
14698;SDS011;7439;50.804;4.602;2023-01-29T11:01:56;53.47;;;35.80;;
14698;SDS011;7439;50.804;4.602;2023-01-29T11:04:24;55.70;;;36.70;;
14698;SDS011;7439;50.804;4.602;2023-01-29T11:06:53;53.00;;;33.80;;
14698;SDS011;7439;50.804;4.602;2023-01-29T11:09:24;59.67;;;36.83;;
14698;SDS011;7439;50.804;4.602;2023-01-29T11:11:53;53.87;;;36.67;;
14698;SDS011;7439;50.804;4.602;2023-01-29T11:14:24;51.60;;;35.97;;
14698;SDS011;7439;50.804;4.602;2023-01-29T11:16:53;59.53;;;37.33;;
14698;SDS011;7439;50.804;4.602;2023-01-29T11:19:34;49.37;;;34.37;;
14698;SDS011;7439;50.804;4.602;2023-01-29T11:22:03;51.13;;;34.80;;
14698;SDS011;7439;50.804;4.602;2023-01-29T11:24:33;52.43;;;35.47;;
14698;SDS011;7439;50.804;4.602;2023-01-29T11:27:01;51.40;;;33.80;;
14698;SDS011;7439;50.804;4.602;2023-01-29T11:29:38;52.27;;;35.80;;
14698;SDS011;7439;50.804;4.602;2023-01-29T11:32:06;42.50;;;30.63;;
14698;SDS011;7439;50.804;4.602;2023-01-29T11:34:34;47.03;;;31.17;;
14698;SDS011;7439;50.804;4.602;2023-01-29T11:37:23;48.50;;;32.30;;
14698;SDS011;7439;50.804;4.602;2023-01-29T11:39:57;45.33;;;31.00;;
14698;SDS011;7439;50.804;4.602;2023-01-29T11:42:25;46.70;;;32.00;;
14698;SDS011;7439;50.804;4.602;2023-01-29T11:44:56;46.03;;;31.97;;
14698;SDS011;7439;50.804;4.602;2023-01-29T11:47:25;46.60;;;31.47;;
14698;SDS011;7439;50.804;4.602;2023-01-29T11:49:53;43.33;;;29.30;;
14698;SDS011;7439;50.804;4.602;2023-01-29T11:52:23;42.23;;;28.13;;
14698;SDS011;7439;50.804;4.602;2023-01-29T11:54:52;46.00;;;28.00;;
14698;SDS011;7439;50.804;4.602;2023-01-29T11:57:25;41.07;;;29.40;;
14698;SDS011;7439;50.804;4.602;2023-01-29T11:59:54;41.47;;;30.47;;
14698;SDS011;7439;50.804;4.602;2023-01-29T12:02:23;44.60;;;29.70;;
14698;SDS011;7439;50.804;4.602;2023-01-29T12:04:52;41.67;;;29.63;;
14698;SDS011;7439;50.804;4.602;2023-01-29T12:07:21;42.40;;;29.37;;
14698;SDS011;7439;50.804;4.602;2023-01-29T12:09:51;39.53;;;28.27;;
14698;SDS011;7439;50.804;4.602;2023-01-29T12:18:00;37.30;;;26.93;;
14698;SDS011;7439;50.804;4.602;2023-01-29T12:20:32;38.90;;;27.00;;
14698;SDS011;7439;50.804;4.602;2023-01-29T12:23:02;37.10;;;27.40;;
14698;SDS011;7439;50.804;4.602;2023-01-29T12:25:37;43.20;;;28.10;;
14698;SDS011;7439;50.804;4.602;2023-01-29T12:28:06;35.00;;;24.67;;
14698;SDS011;7439;50.804;4.602;2023-01-29T12:30:39;37.33;;;27.80;;
14698;SDS011;7439;50.804;4.602;2023-01-29T12:33:11;37.30;;;27.10;;
14698;SDS011;7439;50.804;4.602;2023-01-29T12:35:41;36.13;;;26.07;;
14698;SDS011;7439;50.804;4.602;2023-01-29T12:38:11;32.57;;;24.80;;
14698;SDS011;7439;50.804;4.602;2023-01-29T12:40:45;33.13;;;24.00;;
14698;SDS011;7439;50.804;4.602;2023-01-29T12:43:15;30.53;;;23.67;;
14698;SDS011;7439;50.804;4.602;2023-01-29T12:45:42;29.43;;;22.83;;
14698;SDS011;7439;50.804;4.602;2023-01-29T12:48:11;30.33;;;23.23;;
14698;SDS011;7439;50.804;4.602;2023-01-29T12:50:40;27.73;;;22.63;;
14698;SDS011;7439;50.804;4.602;2023-01-29T12:53:11;31.23;;;23.43;;
14698;SDS011;7439;50.804;4.602;2023-01-29T12:55:40;25.53;;;20.80;;
14698;SDS011;7439;50.804;4.602;2023-01-29T12:58:11;24.33;;;19.30;;
14698;SDS011;7439;50.804;4.602;2023-01-29T13:00:40;26.53;;;20.80;;
14698;SDS011;7439;50.804;4.602;2023-01-29T13:03:09;27.30;;;19.20;;
14698;SDS011;7439;50.804;4.602;2023-01-29T13:05:43;24.33;;;20.33;;
14698;SDS011;7439;50.804;4.602;2023-01-29T13:08:13;30.23;;;24.57;;
14698;SDS011;7439;50.804;4.602;2023-01-29T13:10:43;26.77;;;20.83;;
14698;SDS011;7439;50.804;4.602;2023-01-29T13:13:15;23.83;;;18.20;;
14698;SDS011;7439;50.804;4.602;2023-01-29T13:15:47;37.10;;;28.43;;
14698;SDS011;7439;50.804;4.602;2023-01-29T13:18:29;33.37;;;27.43;;
14698;SDS011;7439;50.804;4.602;2023-01-29T13:20:58;31.30;;;22.43;;
14698;SDS011;7439;50.804;4.602;2023-01-29T13:23:27;29.60;;;21.53;;
14698;SDS011;7439;50.804;4.602;2023-01-29T13:25:56;25.30;;;19.63;;
14698;SDS011;7439;50.804;4.602;2023-01-29T13:28:25;22.83;;;19.90;;
14698;SDS011;7439;50.804;4.602;2023-01-29T13:31:09;21.20;;;17.80;;
14698;SDS011;7439;50.804;4.602;2023-01-29T13:33:37;20.33;;;16.93;;
14698;SDS011;7439;50.804;4.602;2023-01-29T13:36:09;18.93;;;17.03;;
14698;SDS011;7439;50.804;4.602;2023-01-29T13:38:38;20.43;;;18.10;;
14698;SDS011;7439;50.804;4.602;2023-01-29T13:41:06;18.97;;;16.97;;
14698;SDS011;7439;50.804;4.602;2023-01-29T13:43:36;20.70;;;17.47;;
14698;SDS011;7439;50.804;4.602;2023-01-29T13:46:06;21.17;;;18.23;;
14698;SDS011;7439;50.804;4.602;2023-01-29T13:48:39;20.90;;;18.33;;
14698;SDS011;7439;50.804;4.602;2023-01-29T13:51:09;21.80;;;18.87;;
14698;SDS011;7439;50.804;4.602;2023-01-29T13:53:39;17.83;;;16.07;;
14698;SDS011;7439;50.804;4.602;2023-01-29T13:58:55;18.60;;;16.60;;
14698;SDS011;7439;50.804;4.602;2023-01-29T14:04:23;17.97;;;15.87;;
14698;SDS011;7439;50.804;4.602;2023-01-29T14:06:52;19.67;;;17.33;;
14698;SDS011;7439;50.804;4.602;2023-01-29T14:15:23;19.70;;;16.60;;
14698;SDS011;7439;50.804;4.602;2023-01-29T14:17:55;22.30;;;18.37;;
14698;SDS011;7439;50.804;4.602;2023-01-29T14:20:27;26.97;;;22.23;;
14698;SDS011;7439;50.804;4.602;2023-01-29T14:22:56;23.53;;;18.33;;
14698;SDS011;7439;50.804;4.602;2023-01-29T14:25:27;22.43;;;19.37;;
14698;SDS011;7439;50.804;4.602;2023-01-29T14:27:55;23.00;;;19.77;;
14698;SDS011;7439;50.804;4.602;2023-01-29T14:30:24;20.97;;;18.77;;
14698;SDS011;7439;50.804;4.602;2023-01-29T14:32:53;25.43;;;20.90;;
14698;SDS011;7439;50.804;4.602;2023-01-29T14:35:21;24.87;;;19.87;;
14698;SDS011;7439;50.804;4.602;2023-01-29T14:37:52;28.63;;;21.87;;
14698;SDS011;7439;50.804;4.602;2023-01-29T14:40:24;23.83;;;19.03;;
14698;SDS011;7439;50.804;4.602;2023-01-29T14:42:57;28.57;;;20.30;;
14698;SDS011;7439;50.804;4.602;2023-01-29T14:45:27;27.60;;;21.53;;
14698;SDS011;7439;50.804;4.602;2023-01-29T14:47:56;26.00;;;20.00;;
14698;SDS011;7439;50.804;4.602;2023-01-29T14:53:10;25.00;;;20.53;;
14698;SDS011;7439;50.804;4.602;2023-01-29T14:55:39;29.67;;;22.33;;
14698;SDS011;7439;50.804;4.602;2023-01-29T14:58:09;24.87;;;20.67;;
14698;SDS011;7439;50.804;4.602;2023-01-29T15:00:41;25.40;;;21.13;;
14698;SDS011;7439;50.804;4.602;2023-01-29T15:03:11;24.67;;;21.97;;
14698;SDS011;7439;50.804;4.602;2023-01-29T15:05:39;30.57;;;22.23;;
14698;SDS011;7439;50.804;4.602;2023-01-29T15:08:12;24.63;;;20.00;;
14698;SDS011;7439;50.804;4.602;2023-01-29T15:10:42;25.77;;;21.67;;
14698;SDS011;7439;50.804;4.602;2023-01-29T15:13:13;28.23;;;22.00;;
14698;SDS011;7439;50.804;4.602;2023-01-29T15:15:45;30.80;;;22.97;;
14698;SDS011;7439;50.804;4.602;2023-01-29T15:18:14;27.03;;;21.00;;
14698;SDS011;7439;50.804;4.602;2023-01-29T15:20:42;25.20;;;21.73;;